Time;durP1;ratioP1;P1;durP2;ratioP2;P2;SDS_P1;SDS_P2;PMS_P1;PMS_P2;Temp;Humidity;BMP_temperature;BMP_pressure;BME280_temperature;BME280_humidity;BME280_pressure;Samples;Min_cycle;Max_cycle;Signal;HPM_P1;HPM_P2
2023/02/26 00:00:58;;;;;;;5.32;1.90;;;;;;;18.49;40.35;101738.34;5124857;27;20035;-69
2023/02/26 00:03:23;;;;;;;8.65;2.25;;;;;;;18.47;40.43;101738.47;5124225;27;20114;-69
2023/02/26 00:05:49;;;;;;;6.50;1.90;;;;;;;18.48;40.22;101747.22;5124167;27;20034;-69
2023/02/26 00:08:14;;;;;;;4.47;1.95;;;;;;;18.44;40.50;101740.47;5123780;27;20379;-68
2023/02/26 00:10:39;;;;;;;5.32;1.85;;;;;;;18.41;40.71;101738.03;5123850;27;20091;-69
2023/02/26 00:13:05;;;;;;;6.03;2.40;;;;;;;18.33;40.92;101735.94;5123814;27;20035;-69
2023/02/26 00:15:30;;;;;;;5.47;1.98;;;;;;;18.39;40.81;101753.13;5123254;27;20023;-71
2023/02/26 00:18:12;;;;;;;4.85;1.75;;;;;;;18.39;40.90;101754.00;5123573;27;20031;-69
2023/02/26 00:20:38;;;;;;;5.22;2.08;;;;;;;18.39;40.63;101764.53;5124107;27;20023;-69
2023/02/26 00:23:04;;;;;;;4.18;1.75;;;;;;;18.37;40.82;101757.66;5123642;27;20038;-68
2023/02/26 00:25:29;;;;;;;5.20;1.98;;;;;;;18.39;40.70;101769.81;5123427;27;20042;-69
2023/02/26 00:27:54;;;;;;;5.57;2.20;;;;;;;18.36;40.69;101758.59;5123587;27;20041;-69
2023/02/26 00:30:20;;;;;;;5.38;2.25;;;;;;;18.34;40.51;101764.00;5123587;27;20039;-68
2023/02/26 00:32:46;;;;;;;4.97;2.00;;;;;;;18.36;40.61;101761.25;5123948;27;20035;-69
2023/02/26 00:35:13;;;;;;;4.60;1.92;;;;;;;18.31;40.74;101766.84;5123377;27;20039;-69
2023/02/26 00:37:53;;;;;;;7.15;2.47;;;;;;;18.31;40.92;101778.25;5123565;27;20038;-68
2023/02/26 00:40:34;;;;;;;5.32;1.98;;;;;;;18.27;40.44;101771.47;5123227;27;20136;-70
2023/02/26 00:42:59;;;;;;;9.15;2.78;;;;;;;18.27;40.71;101771.47;5123576;27;20042;-69
2023/02/26 00:45:25;;;;;;;5.38;2.25;;;;;;;18.28;40.88;101786.38;5123507;27;20035;-71
2023/02/26 00:48:00;;;;;;;4.90;1.90;;;;;;;18.24;40.83;101784.88;5123078;27;20031;-68
2023/02/26 00:50:26;;;;;;;6.25;2.65;;;;;;;18.23;40.44;101783.19;5104663;27;20454;-68
2023/02/26 00:53:20;;;;;;;6.20;2.30;;;;;;;18.22;40.97;101788.59;5122936;27;20050;-69
2023/02/26 00:55:45;;;;;;;5.70;2.20;;;;;;;18.23;40.88;101792.88;5123498;27;20023;-69
2023/02/26 00:58:10;;;;;;;6.10;2.58;;;;;;;18.23;40.51;101798.16;5122626;27;20086;-70
2023/02/26 01:00:36;;;;;;;5.93;2.40;;;;;;;18.18;40.61;101785.28;5123004;27;20023;-69
2023/02/26 01:03:02;;;;;;;8.27;2.40;;;;;;;18.18;40.79;101787.91;5122915;27;20104;-70
2023/02/26 01:05:28;;;;;;;5.38;2.20;;;;;;;18.17;40.94;101791.53;5122811;27;20139;-70
2023/02/26 01:08:36;;;;;;;5.28;2.13;;;;;;;18.18;40.86;101800.28;5123025;27;20031;-69
2023/02/26 01:11:01;;;;;;;6.30;2.30;;;;;;;18.18;40.81;101800.28;5122988;27;20038;-68
2023/02/26 01:13:27;;;;;;;7.60;2.42;;;;;;;18.16;40.92;101802.19;5122681;27;20531;-69
2023/02/26 01:16:10;;;;;;;5.97;2.40;;;;;;;18.14;40.69;101802.28;5122392;27;20076;-69
2023/02/26 01:18:44;;;;;;;4.82;2.10;;;;;;;18.12;40.90;101807.66;5122566;27;20031;-68
2023/02/26 01:21:16;;;;;;;5.07;2.25;;;;;;;18.13;41.00;101808.50;5122552;27;20023;-70
2023/02/26 01:23:48;;;;;;;6.70;2.58;;;;;;;18.09;40.97;101804.38;5122802;27;20387;-69
2023/02/26 01:26:20;;;;;;;5.45;2.30;;;;;;;18.07;40.85;101811.53;5122728;27;20039;-69
2023/02/26 01:28:46;;;;;;;4.68;1.80;;;;;;;18.08;40.86;101806.16;5122110;27;20119;-68
2023/02/26 01:31:33;;;;;;;5.68;2.38;;;;;;;18.07;40.84;101811.53;5122741;27;20076;-68
2023/02/26 01:34:06;;;;;;;6.07;2.08;;;;;;;18.03;40.85;101802.97;5122227;27;20079;-69
2023/02/26 01:36:39;;;;;;;5.53;2.45;;;;;;;18.03;40.73;101805.63;5122624;27;20023;-68
2023/02/26 01:39:18;;;;;;;6.30;2.00;;;;;;;18.03;40.78;101815.34;5122325;27;20031;-69
2023/02/26 01:42:04;;;;;;;5.45;2.38;;;;;;;18.02;40.87;101819.75;5122571;27;20054;-69
2023/02/26 01:44:38;;;;;;;5.60;2.38;;;;;;;17.98;40.87;101813.00;5122465;27;20054;-69
2023/02/26 01:47:28;;;;;;;5.45;2.30;;;;;;;18.00;40.79;101815.53;5122093;27;20035;-70
2023/02/26 01:49:54;;;;;;;5.10;2.30;;;;;;;17.98;40.89;101813.00;5122481;27;20066;-68
2023/02/26 01:52:47;;;;;;;5.82;2.00;;;;;;;17.97;40.98;101818.38;5122297;27;20505;-68
2023/02/26 01:55:18;;;;;;;5.82;2.00;;;;;;;17.95;40.84;101823.75;5122061;27;20040;-70
2023/02/26 01:57:44;;;;;;;6.35;2.03;;;;;;;17.96;40.86;101830.72;5122055;27;20046;-68
2023/02/26 02:00:10;;;;;;;6.70;2.05;;;;;;;17.92;40.67;101824.78;5121983;27;20444;-68
2023/02/26 02:02:36;;;;;;;5.82;2.33;;;;;;;17.91;40.64;101822.22;5122245;27;20034;-69
2023/02/26 02:05:13;;;;;;;6.28;2.38;;;;;;;17.91;40.77;101825.75;5122022;27;20027;-68
2023/02/26 02:07:38;;;;;;;5.43;2.10;;;;;;;17.89;40.54;101830.25;5121600;27;20035;-69
2023/02/26 02:10:04;;;;;;;5.75;1.88;;;;;;;17.91;40.80;101835.41;5122269;27;20037;-68
2023/02/26 02:12:51;;;;;;;4.47;1.63;;;;;;;17.89;40.48;101835.53;5122015;27;20074;-69
2023/02/26 02:15:37;;;;;;;4.78;1.90;;;;;;;17.88;40.89;101841.75;5121932;27;20063;-68
2023/02/26 02:18:05;;;;;;;3.90;1.52;;;;;;;17.89;40.46;101847.88;5121818;27;20061;-69
2023/02/26 02:20:45;;;;;;;5.75;1.90;;;;;;;17.86;40.69;101846.22;5121354;27;20034;-68
2023/02/26 02:23:20;;;;;;;5.93;1.80;;;;;;;17.84;41.05;101849.94;5122156;28;20178;-69
2023/02/26 02:25:51;;;;;;;3.67;1.50;;;;;;;17.86;41.06;101859.41;5121730;27;20379;-69
2023/02/26 02:28:40;;;;;;;4.82;1.75;;;;;;;17.84;40.92;101863.94;5121290;27;20042;-70
2023/02/26 02:31:26;;;;;;;4.32;1.80;;;;;;;17.84;41.10;101863.13;5112879;28;20046;-69
2023/02/26 02:34:01;;;;;;;4.10;1.60;;;;;;;17.81;41.04;101866.78;5121924;27;20108;-69
2023/02/26 02:36:44;;;;;;;5.00;1.83;;;;;;;17.80;40.96;101866.88;5121255;28;20035;-69
2023/02/26 02:39:21;;;;;;;5.05;2.00;;;;;;;17.79;40.94;101873.94;5122297;27;20420;-70
2023/02/26 02:42:02;;;;;;;4.95;1.70;;;;;;;17.80;40.99;101873.03;5125731;27;20137;-70
2023/02/26 02:44:31;;;;;;;4.18;1.80;;;;;;;17.81;40.65;101871.22;5125877;27;20023;-70
2023/02/26 02:46:59;;;;;;;4.05;1.65;;;;;;;17.77;40.65;101874.06;5125950;27;20062;-69
2023/02/26 02:49:30;;;;;;;4.75;1.70;;;;;;;17.77;41.07;101883.75;5125305;27;20468;-68
2023/02/26 02:52:02;;;;;;;5.90;1.95;;;;;;;17.77;40.97;101886.41;5125523;27;20042;-68
2023/02/26 02:54:53;;;;;;;5.45;1.67;;;;;;;17.74;41.22;101884.78;5125607;27;20494;-69
2023/02/26 02:57:25;;;;;;;3.75;1.40;;;;;;;17.74;41.08;101883.94;5124885;27;20424;-70
2023/02/26 02:59:57;;;;;;;5.50;1.63;;;;;;;17.74;41.06;101891.84;5125299;27;20031;-68
2023/02/26 03:02:39;;;;;;;4.88;1.92;;;;;;;17.74;40.89;101890.06;5124979;27;20118;-68
2023/02/26 03:05:05;;;;;;;6.22;1.58;;;;;;;17.72;40.91;101888.44;5124476;27;20357;-68
2023/02/26 03:07:34;;;;;;;5.72;1.50;;;;;;;17.71;40.76;101894.69;5124719;27;20034;-69
2023/02/26 03:09:59;;;;;;;3.95;1.33;;;;;;;17.73;41.05;101903.34;5124972;27;20023;-69
2023/02/26 03:12:26;;;;;;;3.67;1.40;;;;;;;17.72;41.12;101909.53;5125291;27;20031;-68
2023/02/26 03:14:51;;;;;;;4.20;1.70;;;;;;;17.68;40.65;101905.44;5125077;27;20043;-68
2023/02/26 03:17:35;;;;;;;4.63;1.60;;;;;;;17.68;40.97;101908.06;5124935;27;20062;-69
2023/02/26 03:20:18;;;;;;;4.63;1.50;;;;;;;17.71;40.83;101918.41;5125280;27;20030;-69
2023/02/26 03:23:02;;;;;;;4.88;1.33;;;;;;;17.71;40.72;101915.78;5125290;27;20031;-69
2023/02/26 03:25:35;;;;;;;4.45;1.42;;;;;;;17.67;40.88;101919.53;5124756;27;20394;-70
2023/02/26 03:28:08;;;;;;;4.60;1.63;;;;;;;17.67;40.75;101925.66;5125090;27;20031;-69
2023/02/26 03:30:40;;;;;;;5.05;1.50;;;;;;;17.65;40.42;101918.78;5125039;27;20031;-69
2023/02/26 03:33:20;;;;;;;4.78;1.60;;;;;;;17.66;40.64;101928.41;5124616;27;20386;-68
2023/02/26 03:35:52;;;;;;;4.25;1.40;;;;;;;17.65;40.71;101926.69;5106075;27;20035;-69
2023/02/26 03:38:31;;;;;;;3.55;1.33;;;;;;;17.64;40.80;101927.63;5124593;27;20368;-69
2023/02/26 03:41:03;;;;;;;3.88;1.50;;;;;;;17.61;40.72;101930.47;5124661;27;20031;-69
2023/02/26 03:43:34;;;;;;;4.78;1.30;;;;;;;17.59;40.71;101927.91;5124727;27;20463;-68
2023/02/26 03:46:06;;;;;;;3.92;1.23;;;;;;;17.58;40.68;101928.88;5124759;27;20023;-69
2023/02/26 03:48:34;;;;;;;3.95;1.40;;;;;;;17.62;40.64;101942.72;5105566;27;20475;-70
2023/02/26 03:51:06;;;;;;;3.78;1.30;;;;;;;17.57;40.79;101940.34;5124131;27;20027;-70
2023/02/26 03:53:41;;;;;;;4.10;1.25;;;;;;;17.59;40.75;101943.72;5124195;27;20073;-67
2023/02/26 03:56:22;;;;;;;5.53;2.03;;;;;;;17.56;40.92;101943.91;5124080;27;20031;-69
2023/02/26 03:58:47;;;;;;;5.93;1.42;;;;;;;17.60;40.67;101955.97;5124177;27;20039;-68
2023/02/26 04:01:21;;;;;;;5.20;1.30;;;;;;;17.56;40.91;101951.81;5124305;27;20458;-68
2023/02/26 04:03:56;;;;;;;3.45;1.33;;;;;;;17.59;40.97;101964.81;5124412;27;20027;-69
2023/02/26 04:06:22;;;;;;;4.15;1.40;;;;;;;17.59;40.97;101964.81;5124273;27;20027;-68
2023/02/26 04:08:47;;;;;;;3.65;1.42;;;;;;;17.58;40.88;101963.97;5123803;27;20027;-68
2023/02/26 04:11:18;;;;;;;5.43;1.35;;;;;;;17.58;40.68;101969.25;5123974;27;20122;-68
2023/02/26 04:13:44;;;;;;;3.80;1.27;;;;;;;17.58;40.69;101979.81;5124114;27;20031;-70
2023/02/26 04:16:10;;;;;;;3.55;1.42;;;;;;;17.57;40.89;101967.56;5123725;27;20689;-70
2023/02/26 04:18:36;;;;;;;5.65;1.38;;;;;;;17.56;40.90;101976.41;5123983;27;20031;-70
2023/02/26 04:21:01;;;;;;;4.20;1.35;;;;;;;17.57;40.78;101977.25;5124059;27;20035;-68
2023/02/26 04:23:26;;;;;;;3.47;1.15;;;;;;;17.55;40.92;101973.88;5123631;27;20462;-68
2023/02/26 04:25:52;;;;;;;3.83;1.30;;;;;;;17.55;40.79;101979.97;5123773;27;20463;-69
2023/02/26 04:28:17;;;;;;;4.95;1.25;;;;;;;17.55;41.13;101984.41;5123808;27;20088;-69
2023/02/26 04:30:43;;;;;;;5.50;1.13;;;;;;;17.57;41.35;101983.38;5123570;27;20027;-69
2023/02/26 04:33:08;;;;;;;2.92;1.10;;;;;;;17.55;40.97;101993.16;5123710;27;20038;-68
2023/02/26 04:35:33;;;;;;;4.15;1.30;;;;;;;17.55;40.74;101998.44;5123478;27;20031;-69
2023/02/26 04:37:58;;;;;;;3.63;1.10;;;;;;;17.53;40.99;101995.06;5123777;27;20039;-69
2023/02/26 04:40:24;;;;;;;4.25;1.15;;;;;;;17.57;40.92;102000.97;5104708;27;20275;-70
2023/02/26 04:42:49;;;;;;;3.72;1.10;;;;;;;17.57;40.96;102003.63;5123309;27;20121;-69
2023/02/26 04:45:15;;;;;;;4.38;1.10;;;;;;;17.57;41.28;102007.09;5123171;27;20020;-69
2023/02/26 04:47:40;;;;;;;3.33;1.13;;;;;;;17.56;40.98;102002.78;5104870;27;20421;-69
2023/02/26 04:50:06;;;;;;;4.18;1.13;;;;;;;17.58;41.18;102010.59;5123121;27;20033;-69
2023/02/26 04:52:32;;;;;;;4.32;1.27;;;;;;;17.54;41.31;101998.53;5123346;27;20115;-70
2023/02/26 04:54:57;;;;;;;3.35;1.08;;;;;;;17.56;41.48;102004.53;5123025;27;20442;-70
2023/02/26 04:57:22;;;;;;;3.60;1.10;;;;;;;17.57;41.42;102011.53;5123113;27;20042;-69
2023/02/26 04:59:48;;;;;;;3.90;1.23;;;;;;;17.59;41.42;102022.81;5122705;27;20106;-69
2023/02/26 05:02:13;;;;;;;4.30;1.40;;;;;;;17.56;41.29;102020.34;5122313;27;20038;-68
2023/02/26 05:04:38;;;;;;;4.80;1.27;;;;;;;17.57;41.39;102028.19;5123377;27;20487;-69
2023/02/26 05:07:04;;;;;;;3.45;1.10;;;;;;;17.55;41.49;102023.97;5122756;27;20076;-69
2023/02/26 05:09:29;;;;;;;3.28;1.13;;;;;;;17.56;41.70;102028.28;5122814;27;20134;-69
2023/02/26 05:11:54;;;;;;;4.80;1.15;;;;;;;17.58;41.11;102031.69;5123303;27;20103;-69
2023/02/26 05:14:19;;;;;;;3.30;0.90;;;;;;;17.56;41.42;102033.53;5104392;27;20035;-69
2023/02/26 05:16:45;;;;;;;4.27;1.23;;;;;;;17.57;41.34;102033.44;5122895;27;20510;-69
2023/02/26 05:19:10;;;;;;;3.25;1.00;;;;;;;17.58;41.13;102044.88;5122290;27;20259;-69
2023/02/26 05:21:36;;;;;;;2.53;0.95;;;;;;;17.57;41.27;102043.16;5122785;27;20035;-69
2023/02/26 05:24:01;;;;;;;4.15;1.10;;;;;;;17.56;41.49;102038.81;5122469;27;20042;-69
2023/02/26 05:26:26;;;;;;;3.05;1.17;;;;;;;17.56;41.50;102050.22;5122449;27;20027;-69
2023/02/26 05:28:51;;;;;;;3.25;0.98;;;;;;;17.58;41.32;102055.41;5103160;27;20504;-69
2023/02/26 05:31:17;;;;;;;2.97;1.05;;;;;;;17.57;41.43;102048.44;5122932;27;20076;-70
2023/02/26 05:33:42;;;;;;;5.22;1.13;;;;;;;17.53;41.01;102055.69;5122520;27;20027;-69
2023/02/26 05:36:08;;;;;;;2.42;0.77;;;;;;;17.56;40.66;102067.81;5122324;27;20122;-69
2023/02/26 05:38:34;;;;;;;3.60;0.90;;;;;;;17.55;40.09;102055.59;5122038;27;20030;-70
2023/02/26 05:40:59;;;;;;;4.32;1.10;;;;;;;17.57;39.83;102051.91;5103950;27;20031;-70
2023/02/26 05:43:26;;;;;;;2.60;0.70;;;;;;;17.63;39.64;102066.50;5122244;27;20033;-71
2023/02/26 05:45:52;;;;;;;2.97;1.00;;;;;;;17.65;39.49;102063.78;5122141;27;20117;-70
2023/02/26 05:48:18;;;;;;;2.67;0.70;;;;;;;17.70;39.62;102065.19;5122649;27;20475;-70
2023/02/26 05:50:43;;;;;;;3.33;1.02;;;;;;;17.75;39.69;102064.91;5122485;27;20046;-69
2023/02/26 05:53:09;;;;;;;3.97;1.15;;;;;;;17.81;39.69;102076.91;5122128;27;20031;-69
2023/02/26 05:55:34;;;;;;;3.35;0.90;;;;;;;17.83;39.40;102064.47;5122247;27;20387;-70
2023/02/26 05:58:00;;;;;;;2.65;0.88;;;;;;;17.85;39.38;102078.38;5121769;27;20523;-69
2023/02/26 06:00:26;;;;;;;2.63;0.80;;;;;;;17.87;39.58;102074.72;5122623;27;20031;-70
2023/02/26 06:02:51;;;;;;;4.22;1.10;;;;;;;17.89;39.49;102064.97;5122056;27;21143;-68
2023/02/26 06:05:16;;;;;;;3.88;0.90;;;;;;;17.91;39.27;102075.41;5122023;27;20026;-69
2023/02/26 06:07:42;;;;;;;2.80;1.00;;;;;;;17.95;39.12;102088.31;5121812;27;20440;-70
2023/02/26 06:10:08;;;;;;;2.05;0.70;;;;;;;17.98;39.29;102094.38;5121769;27;20398;-69
2023/02/26 06:12:34;;;;;;;2.95;1.02;;;;;;;17.99;39.19;102099.56;5121682;27;20645;-69
2023/02/26 06:15:00;;;;;;;3.00;0.70;;;;;;;17.99;39.22;102102.19;5121709;27;20027;-70
2023/02/26 06:17:25;;;;;;;4.18;1.00;;;;;;;17.99;39.36;102102.19;5121868;27;20047;-70
2023/02/26 06:19:51;;;;;;;3.17;0.80;;;;;;;18.03;39.27;102102.84;5122000;28;20031;-69
2023/02/26 06:22:17;;;;;;;3.53;0.90;;;;;;;18.02;39.01;102106.41;5121794;28;20031;-70
2023/02/26 06:24:42;;;;;;;3.03;1.00;;;;;;;18.04;39.22;102115.94;5121672;28;20464;-69
2023/02/26 06:27:07;;;;;;;4.20;0.90;;;;;;;18.03;39.30;102119.53;5121517;28;20035;-69
2023/02/26 06:29:33;;;;;;;4.00;1.00;;;;;;;18.04;39.19;102115.94;5121673;27;20938;-70
2023/02/26 06:31:58;;;;;;;2.08;0.73;;;;;;;18.06;39.27;102121.97;5120870;28;20031;-70
2023/02/26 06:34:24;;;;;;;4.53;0.93;;;;;;;18.07;39.32;102128.09;5121700;28;20046;-70
2023/02/26 06:36:49;;;;;;;3.60;1.00;;;;;;;18.08;39.21;102135.06;5121632;28;20146;-69
2023/02/26 06:39:15;;;;;;;4.55;0.90;;;;;;;18.03;38.96;102135.34;5121644;27;20080;-69
2023/02/26 06:41:40;;;;;;;5.13;1.23;;;;;;;18.09;39.16;102144.69;5121748;27;20812;-69
2023/02/26 06:44:05;;;;;;;3.88;1.00;;;;;;;18.09;39.17;102144.69;5121373;27;20464;-70
2023/02/26 06:46:31;;;;;;;3.15;0.90;;;;;;;18.10;39.20;102154.28;5102778;28;20027;-70
2023/02/26 06:48:56;;;;;;;2.65;0.80;;;;;;;18.08;39.17;102161.44;5121222;27;20174;-69
2023/02/26 06:51:21;;;;;;;3.10;0.90;;;;;;;18.12;38.94;102173.53;5121579;28;20038;-69
2023/02/26 06:53:47;;;;;;;1.77;0.70;;;;;;;18.13;39.08;102172.56;5121520;28;20496;-69
2023/02/26 06:56:12;;;;;;;2.85;0.75;;;;;;;18.12;38.85;102174.38;5121616;27;20114;-69
2023/02/26 06:58:37;;;;;;;2.30;0.80;;;;;;;18.17;39.04;102183.81;5121134;27;20035;-70
2023/02/26 07:01:03;;;;;;;1.70;0.65;;;;;;;18.17;39.16;102199.63;5121842;28;20365;-69
2023/02/26 07:03:28;;;;;;;2.05;0.60;;;;;;;18.16;39.38;102192.66;5121262;27;20118;-69
2023/02/26 07:05:55;;;;;;;3.72;1.00;;;;;;;18.18;38.98;102201.31;5121717;27;20031;-68
2023/02/26 07:08:20;;;;;;;2.38;0.77;;;;;;;18.17;39.07;102194.38;5121271;27;20467;-69
2023/02/26 07:10:48;;;;;;;2.90;0.70;;;;;;;18.21;39.05;102206.41;5121376;28;20034;-69
2023/02/26 07:13:14;;;;;;;3.95;0.85;;;;;;;18.17;39.08;102202.28;5121401;28;20035;-69
2023/02/26 07:15:39;;;;;;;2.85;0.65;;;;;;;18.18;39.22;102212.72;5121164;28;20080;-69
2023/02/26 07:18:04;;;;;;;2.85;0.80;;;;;;;18.19;39.19;102217.06;5121606;27;20031;-70
2023/02/26 07:20:30;;;;;;;3.55;0.90;;;;;;;18.19;39.06;102216.22;5120985;28;20080;-70
2023/02/26 07:22:55;;;;;;;2.33;0.80;;;;;;;18.14;39.38;102216.50;5121405;28;20023;-69
2023/02/26 07:25:21;;;;;;;2.88;1.00;;;;;;;18.19;38.91;102224.97;5122307;27;20027;-71
2023/02/26 07:27:46;;;;;;;3.33;0.80;;;;;;;18.19;39.04;102227.59;5124992;27;20034;-70
2023/02/26 07:30:13;;;;;;;3.28;0.73;;;;;;;18.21;38.92;102235.44;5106314;27;20023;-71
2023/02/26 07:32:38;;;;;;;2.95;0.70;;;;;;;18.22;38.71;102240.63;5125138;27;20114;-70
2023/02/26 07:35:04;;;;;;;3.42;0.82;;;;;;;18.22;38.83;102248.53;5124936;27;20125;-69
2023/02/26 07:37:30;;;;;;;3.63;0.85;;;;;;;18.26;38.92;102254.47;5124571;27;20031;-70
2023/02/26 07:39:55;;;;;;;2.03;0.80;;;;;;;18.27;38.82;102258.81;5124770;27;20035;-69
2023/02/26 07:42:21;;;;;;;2.45;0.70;;;;;;;18.25;39.26;102260.72;5124634;27;20039;-70
2023/02/26 07:44:46;;;;;;;3.60;0.80;;;;;;;18.29;39.01;102271.00;5124818;27;20034;-70
2023/02/26 07:47:12;;;;;;;1.90;0.70;;;;;;;18.27;39.08;102264.94;5124197;27;20037;-70
2023/02/26 07:49:38;;;;;;;2.65;0.80;;;;;;;18.28;38.87;102261.38;5124576;27;20493;-69
2023/02/26 07:52:06;;;;;;;2.97;0.75;;;;;;;18.30;39.15;102270.03;5124459;27;20026;-70
2023/02/26 07:54:31;;;;;;;2.33;0.70;;;;;;;18.28;39.13;102271.94;5124252;27;20027;-70
2023/02/26 07:56:56;;;;;;;2.45;0.88;;;;;;;18.30;39.06;102266.56;5124388;27;20031;-69
2023/02/26 07:59:22;;;;;;;3.17;0.90;;;;;;;18.30;38.80;102271.84;5124035;27;20508;-69
2023/02/26 08:01:47;;;;;;;4.85;0.88;;;;;;;18.31;38.87;102284.94;5124097;27;20023;-68
2023/02/26 08:04:12;;;;;;;4.43;0.75;;;;;;;18.37;38.82;102288.16;5124244;27;20039;-69
2023/02/26 08:06:38;;;;;;;5.30;0.90;;;;;;;18.37;38.91;102280.22;5124195;27;20409;-68
2023/02/26 08:09:04;;;;;;;2.88;0.80;;;;;;;18.34;39.48;102283.94;5123870;27;20425;-68
2023/02/26 08:11:31;;;;;;;4.38;1.13;;;;;;;18.37;39.74;102285.50;5124125;27;20058;-67
2023/02/26 08:13:57;;;;;;;3.42;0.90;;;;;;;18.38;39.79;102287.22;5124003;27;20031;-68
2023/02/26 08:16:23;;;;;;;4.15;0.90;;;;;;;18.38;39.29;102292.50;5123873;27;20055;-70
2023/02/26 08:18:49;;;;;;;2.05;0.88;;;;;;;18.38;39.71;102293.34;5123682;27;20151;-68
2023/02/26 08:21:15;;;;;;;6.00;0.95;;;;;;;18.41;39.52;102294.97;5123582;27;20141;-69
2023/02/26 08:23:40;;;;;;;1.92;0.65;;;;;;;18.45;39.73;102302.59;5123966;27;20027;-69
2023/02/26 08:26:07;;;;;;;2.67;0.80;;;;;;;18.48;39.92;102298.91;5123604;27;20126;-69
2023/02/26 08:28:33;;;;;;;3.25;0.80;;;;;;;18.47;39.76;102303.34;5123887;27;20563;-69
2023/02/26 08:30:59;;;;;;;2.95;0.88;;;;;;;18.51;39.74;102306.66;5123830;27;20067;-70
2023/02/26 08:33:25;;;;;;;3.22;0.90;;;;;;;18.53;40.45;102317.97;5105200;27;20150;-69
2023/02/26 08:35:51;;;;;;;4.00;0.95;;;;;;;18.51;40.53;102311.94;5123573;27;20195;-69
2023/02/26 08:38:16;;;;;;;3.17;0.82;;;;;;;18.53;40.56;102317.97;5123243;27;20840;-68
2023/02/26 08:40:42;;;;;;;2.92;0.73;;;;;;;18.54;40.50;102318.84;5124945;27;20031;-67
2023/02/26 08:43:08;;;;;;;5.15;1.00;;;;;;;18.55;40.68;102326.66;5123423;27;20387;-67
2023/02/26 08:45:34;;;;;;;1.73;0.63;;;;;;;18.52;40.95;102318.94;5123509;27;20550;-69
2023/02/26 08:47:59;;;;;;;2.75;0.95;;;;;;;18.58;41.15;102325.63;5122970;27;20399;-70
2023/02/26 08:50:27;;;;;;;2.83;0.65;;;;;;;18.57;40.99;102329.22;5123328;27;20578;-71
2023/02/26 08:52:52;;;;;;;2.72;0.73;;;;;;;18.57;41.48;102327.41;5104212;27;20088;-68
2023/02/26 08:55:18;;;;;;;3.55;0.88;;;;;;;18.58;41.33;102331.75;5123111;27;20596;-69
2023/02/26 08:57:43;;;;;;;3.45;1.00;;;;;;;18.60;42.00;102343.06;5104139;27;20160;-69
2023/02/26 09:00:09;;;;;;;6.15;1.50;;;;;;;18.66;42.74;102355.06;5104268;27;20031;-70
2023/02/26 09:02:36;;;;;;;5.22;1.73;;;;;;;18.70;42.73;102359.22;5123272;27;20062;-69
2023/02/26 09:05:02;;;;;;;4.53;1.25;;;;;;;18.73;42.94;102352.91;5123314;27;20027;-69
2023/02/26 09:07:27;;;;;;;5.90;1.60;;;;;;;18.74;42.81;102355.47;5122868;27;20062;-69
2023/02/26 09:09:52;;;;;;;4.75;1.10;;;;;;;18.74;43.05;102355.47;5123328;27;20039;-68
2023/02/26 09:12:17;;;;;;;7.35;1.50;;;;;;;18.76;43.29;102361.50;5123177;27;20661;-68
2023/02/26 09:14:43;;;;;;;6.57;1.50;;;;;;;18.76;43.18;102369.41;5122758;27;20035;-69
2023/02/26 09:17:08;;;;;;;5.32;1.40;;;;;;;18.78;43.55;102366.69;5122538;27;20468;-69
2023/02/26 09:19:33;;;;;;;6.85;1.30;;;;;;;18.80;43.73;102373.59;5122386;27;20088;-70
2023/02/26 09:21:59;;;;;;;9.40;1.35;;;;;;;18.81;43.45;102369.13;5099665;27;20038;-69
2023/02/26 09:24:24;;;;;;;4.18;1.30;;;;;;;18.84;43.33;102369.81;5122059;27;20031;-68
2023/02/26 09:26:49;;;;;;;6.32;1.48;;;;;;;18.86;43.02;102377.66;5121630;27;20509;-68
2023/02/26 09:29:14;;;;;;;4.97;1.38;;;;;;;18.87;42.87;102375.84;5120409;27;20039;-68
2023/02/26 09:31:40;;;;;;;6.03;1.45;;;;;;;18.88;43.31;102378.41;5122121;27;20080;-67
2023/02/26 09:34:05;;;;;;;4.70;1.23;;;;;;;18.93;43.07;102386.06;5122721;27;20460;-70
2023/02/26 09:36:30;;;;;;;4.47;1.27;;;;;;;18.93;42.48;102391.34;5122576;27;20100;-72
2023/02/26 09:38:56;;;;;;;4.45;1.40;;;;;;;18.90;42.96;102387.13;5122143;27;20134;-69
2023/02/26 09:41:32;;;;;;;4.40;1.00;;;;;;;18.95;42.39;102403.53;5122343;27;20364;-70
2023/02/26 09:44:29;;;;;;;4.07;1.30;;;;;;;18.95;42.25;102402.69;5122878;27;20498;-70
2023/02/26 09:47:10;;;;;;;3.60;0.98;;;;;;;18.93;42.41;102396.63;5122156;27;20046;-69
2023/02/26 09:49:42;;;;;;;4.00;1.08;;;;;;;18.96;42.10;102409.66;5121728;27;20424;-70
2023/02/26 09:52:30;;;;;;;4.57;1.20;;;;;;;18.96;41.96;102410.53;5122001;27;20042;-68
2023/02/26 09:55:02;;;;;;;3.78;1.10;;;;;;;18.93;41.53;102416.00;5122527;27;20054;-70
2023/02/26 09:57:31;;;;;;;3.70;1.13;;;;;;;18.94;41.05;102415.03;5121918;27;20037;-69
2023/02/26 09:59:59;;;;;;;3.75;1.10;;;;;;;18.99;40.44;102422.69;5119199;27;20035;-69
2023/02/26 10:02:44;;;;;;;6.95;1.23;;;;;;;19.03;40.80;102421.56;5102809;27;20039;-68
2023/02/26 10:05:21;;;;;;;3.67;1.10;;;;;;;19.05;40.47;102422.31;5121626;27;20031;-69
2023/02/26 10:07:59;;;;;;;5.47;1.08;;;;;;;19.03;40.46;102427.69;5121205;27;20376;-68
2023/02/26 10:10:44;;;;;;;4.03;1.10;;;;;;;19.08;40.16;102435.34;5120461;27;20031;-68
2023/02/26 10:13:36;;;;;;;5.93;1.20;;;;;;;19.11;40.28;102437.81;5121167;27;20120;-70
2023/02/26 10:16:10;;;;;;;5.00;1.00;;;;;;;19.14;39.99;102445.56;5121097;27;20062;-69
2023/02/26 10:18:39;;;;;;;;;;;;;;;19.23;39.87;102443.28;5104144;27;20430;-69
2023/02/26 10:21:13;;;;;;;3.60;1.02;;;;;;;19.22;39.59;102439.81;5121160;27;20395;-68
2023/02/26 10:23:50;;;;;;;6.20;1.17;;;;;;;19.21;39.83;102441.56;5121664;28;20039;-68
2023/02/26 10:26:24;;;;;;;3.78;0.90;;;;;;;19.16;39.78;102441.00;5121083;28;20123;-68
2023/02/26 10:28:58;;;;;;;2.47;0.90;;;;;;;19.16;39.73;102438.38;5121336;28;20480;-68
2023/02/26 10:31:31;;;;;;;3.80;1.00;;;;;;;19.24;39.67;102447.63;5121026;27;20046;-69
2023/02/26 10:34:24;;;;;;;3.03;1.08;;;;;;;19.26;39.54;102451.03;5102620;28;20390;-68
2023/02/26 10:37:02;;;;;;;4.07;1.20;;;;;;;19.29;39.36;102453.50;5109796;28;20039;-68
2023/02/26 10:39:30;;;;;;;4.70;1.05;;;;;;;19.32;39.33;102448.03;5121149;28;20042;-69
2023/02/26 10:42:04;;;;;;;2.97;0.80;;;;;;;19.31;38.84;102441.88;5121167;28;20039;-65
2023/02/26 10:44:39;;;;;;;4.20;0.88;;;;;;;19.37;38.52;102445.94;5120846;28;20084;-66
2023/02/26 10:47:18;;;;;;;2.67;0.85;;;;;;;19.37;38.72;102451.22;5120857;28;20031;-64
2023/02/26 10:50:02;;;;;;;3.30;0.80;;;;;;;19.37;38.76;102448.56;5121130;28;20450;-69
2023/02/26 10:52:31;;;;;;;3.15;0.80;;;;;;;19.40;38.97;102456.31;5120941;27;20042;-67
2023/02/26 10:55:05;;;;;;;4.38;0.70;;;;;;;19.40;38.54;102456.31;5120445;27;20092;-67
2023/02/26 10:57:35;;;;;;;4.82;1.15;;;;;;;19.39;38.71;102463.41;5120833;27;20501;-70
2023/02/26 11:00:04;;;;;;;4.38;0.90;;;;;;;19.39;38.68;102452.84;5121378;27;20483;-68
2023/02/26 11:02:37;;;;;;;2.67;0.70;;;;;;;19.36;39.00;102460.97;5123256;27;20023;-66
2023/02/26 11:05:05;;;;;;;4.22;1.10;;;;;;;19.40;39.11;102458.97;5124363;27;20035;-69
2023/02/26 11:07:35;;;;;;;3.70;1.10;;;;;;;19.43;39.07;102461.44;5124020;27;20043;-70
2023/02/26 11:10:02;;;;;;;2.53;0.60;;;;;;;19.39;39.11;102457.25;5125597;27;20031;-66
2023/02/26 11:12:27;;;;;;;3.20;0.93;;;;;;;19.40;39.06;102462.44;5124452;27;20034;-68
2023/02/26 11:14:53;;;;;;;3.40;0.80;;;;;;;19.38;38.80;102467.00;5106961;27;20031;-67
2023/02/26 11:17:22;;;;;;;3.38;0.68;;;;;;;19.39;38.77;102470.47;5125120;27;20143;-69
2023/02/26 11:19:55;;;;;;;2.05;0.70;;;;;;;19.34;38.74;102467.28;5124877;27;20071;-69
2023/02/26 11:22:21;;;;;;;3.22;0.80;;;;;;;19.30;38.76;102457.84;5125408;27;20035;-70
2023/02/26 11:24:49;;;;;;;4.63;0.70;;;;;;;19.28;38.81;102459.72;5124928;27;20031;-69
2023/02/26 11:27:20;;;;;;;2.95;0.57;;;;;;;19.25;38.89;102463.41;5106049;27;20253;-68
2023/02/26 11:29:52;;;;;;;2.67;0.80;;;;;;;19.21;38.77;102465.38;5124715;27;20055;-66
2023/02/26 11:32:22;;;;;;;5.97;1.02;;;;;;;19.19;38.37;102459.31;5121839;27;20031;-67
2023/02/26 11:34:50;;;;;;;3.28;0.88;;;;;;;19.24;38.47;102469.63;5123912;27;20447;-68